createdAt,value
2023-02-21T00:00:24.366Z,30.77
2023-02-21T00:03:11.926Z,32.35
2023-02-21T00:05:58.077Z,32.25
2023-02-21T00:08:48.606Z,33.03
2023-02-21T00:11:46.042Z,35.42
2023-02-21T00:14:34.963Z,35.78
2023-02-21T00:17:28.458Z,35.67
2023-02-21T00:20:20.862Z,35.60
2023-02-21T00:23:11.946Z,35.25
2023-02-21T00:26:12.888Z,27.98
2023-02-21T00:29:16.907Z,33.78
2023-02-21T00:35:23.593Z,32.47
2023-02-21T00:42:10.204Z,34.78
2023-02-21T00:45:08.135Z,34.97
2023-02-21T00:48:03.566Z,31.63
2023-02-21T00:50:48.804Z,29.15
2023-02-21T00:53:34.569Z,30.98
2023-02-21T00:56:37.990Z,31.75
2023-02-21T00:59:29.776Z,31.52
2023-02-21T01:02:16.298Z,32.30
2023-02-21T01:05:03.376Z,27.48
2023-02-21T01:07:52.281Z,30.52
2023-02-21T01:10:41.044Z,29.15
2023-02-21T01:13:29.146Z,30.40
2023-02-21T01:16:15.665Z,29.95
2023-02-21T01:19:04.236Z,30.08
2023-02-21T01:21:51.366Z,29.98
2023-02-21T01:24:38.126Z,31.85
2023-02-21T01:27:25.396Z,30.55
2023-02-21T01:30:11.501Z,32.05
2023-02-21T01:32:56.851Z,27.40
2023-02-21T01:35:42.620Z,29.92
2023-02-21T01:38:29.440Z,29.80
2023-02-21T01:41:15.788Z,29.08
2023-02-21T01:44:17.606Z,27.08
2023-02-21T01:47:03.306Z,23.95
2023-02-21T01:49:49.301Z,26.08
2023-02-21T01:52:36.599Z,27.15
2023-02-21T01:55:23.132Z,28.00
2023-02-21T01:58:11.656Z,26.60
2023-02-21T02:00:58.889Z,28.15
2023-02-21T02:03:45.397Z,24.27
2023-02-21T02:06:35.257Z,25.35
2023-02-21T02:09:36.953Z,24.60
2023-02-21T02:12:36.803Z,25.75
2023-02-21T02:15:33.222Z,26.02
2023-02-21T02:18:08.600Z,23.48
2023-02-21T02:21:08.754Z,24.52
2023-02-21T02:24:03.366Z,20.25
2023-02-21T02:27:04.466Z,23.40
2023-02-21T02:29:40.358Z,22.10
2023-02-21T02:32:16.873Z,21.88
2023-02-21T02:34:55.705Z,21.95
2023-02-21T02:37:35.523Z,23.05
2023-02-21T02:40:36.779Z,22.25
2023-02-21T02:43:33.756Z,22.08
2023-02-21T02:46:28.271Z,21.40
2023-02-21T02:49:14.782Z,23.13
2023-02-21T02:51:42.322Z,23.67
2023-02-21T02:54:13.117Z,22.02
2023-02-21T02:56:40.783Z,22.08
2023-02-21T02:59:26.521Z,22.23
2023-02-21T03:02:21.604Z,22.17
2023-02-21T03:05:16.591Z,24.50
2023-02-21T03:08:11.981Z,25.00
2023-02-21T03:10:48.155Z,25.85
2023-02-21T03:13:45.588Z,26.48
2023-02-21T03:16:50.085Z,22.90
2023-02-21T03:19:34.224Z,23.13
2023-02-21T03:22:11.994Z,23.80
2023-02-21T03:24:42.962Z,25.48
2023-02-21T03:27:11.392Z,23.83
2023-02-21T03:29:46.504Z,23.55
2023-02-21T03:32:33.246Z,21.30
2023-02-21T03:35:02.476Z,22.60
2023-02-21T03:37:42.659Z,24.25
2023-02-21T03:40:18.614Z,21.08
2023-02-21T03:42:52.897Z,22.88
2023-02-21T03:45:20.738Z,17.23
2023-02-21T03:48:20.216Z,18.25
2023-02-21T03:50:51.568Z,17.38
2023-02-21T03:53:23.714Z,18.30
2023-02-21T03:55:52.796Z,18.55
2023-02-21T03:58:26.156Z,17.15
2023-02-21T04:00:54.102Z,17.88
2023-02-21T04:03:25.378Z,17.42
2023-02-21T04:05:59.983Z,17.88
2023-02-21T04:08:32.423Z,15.68
2023-02-21T04:10:59.517Z,17.13
2023-02-21T04:13:31.735Z,15.93
2023-02-21T04:16:00.773Z,17.33
2023-02-21T04:18:31.103Z,16.75
2023-02-21T04:21:01.834Z,18.05
2023-02-21T04:23:30.993Z,17.00
2023-02-21T04:25:59.668Z,18.42
2023-02-21T04:28:37.654Z,18.70
2023-02-21T04:31:05.919Z,17.58
2023-02-21T04:33:36.430Z,18.20
2023-02-21T04:36:06.080Z,14.73
2023-02-21T04:38:39.630Z,15.10
2023-02-21T04:41:12.895Z,15.80
2023-02-21T04:43:43.199Z,15.75
2023-02-21T04:46:17.293Z,16.38
2023-02-21T04:48:48.880Z,16.48
2023-02-21T04:51:20.098Z,16.08
2023-02-21T04:53:48.745Z,15.95
2023-02-21T04:56:18.527Z,15.00
2023-02-21T04:58:47.518Z,13.13
2023-02-21T05:01:16.635Z,11.75
2023-02-21T05:03:48.032Z,12.52
2023-02-21T05:06:20.378Z,11.52
2023-02-21T05:08:49.833Z,12.23
2023-02-21T05:11:20.105Z,12.30
2023-02-21T05:13:48.098Z,12.52
2023-02-21T05:16:17.481Z,12.82
2023-02-21T05:18:46.151Z,12.93
2023-02-21T05:21:16.282Z,13.13
2023-02-21T05:24:04.287Z,10.32
2023-02-21T05:26:41.113Z,11.38
2023-02-21T05:29:35.952Z,11.82
2023-02-21T05:35:49.630Z,9.95
2023-02-21T05:38:18.738Z,11.52
2023-02-21T05:40:45.950Z,11.93
2023-02-21T05:43:15.402Z,12.60
2023-02-21T05:45:43.123Z,11.75
2023-02-21T05:48:10.227Z,12.88
2023-02-21T05:50:39.741Z,10.75
2023-02-21T05:53:10.532Z,11.15
2023-02-21T05:55:38.114Z,10.57
2023-02-21T05:58:05.302Z,11.40
2023-02-21T06:00:32.412Z,11.05
2023-02-21T06:03:00.000Z,11.18
2023-02-21T06:05:27.509Z,11.05
2023-02-21T06:07:54.581Z,11.00
2023-02-21T06:10:21.664Z,10.68
2023-02-21T06:12:51.774Z,10.68
2023-02-21T06:15:18.956Z,10.73
2023-02-21T06:17:46.453Z,11.65
2023-02-21T06:20:15.346Z,8.98
2023-02-21T06:22:44.090Z,11.00
2023-02-21T06:25:11.914Z,10.77
2023-02-21T06:27:50.165Z,11.73
2023-02-21T06:30:17.462Z,8.90
2023-02-21T06:32:44.535Z,10.00
2023-02-21T06:35:13.188Z,11.63
2023-02-21T06:37:45.908Z,12.02
2023-02-21T06:40:14.588Z,9.80
2023-02-21T06:42:41.465Z,8.80
2023-02-21T06:45:11.784Z,9.30
2023-02-21T06:47:39.752Z,7.90
2023-02-21T06:50:15.358Z,7.90
2023-02-21T06:52:44.596Z,8.70
2023-02-21T06:55:12.042Z,9.07
2023-02-21T06:57:40.994Z,9.60
2023-02-21T07:00:11.235Z,9.23
2023-02-21T07:02:39.646Z,8.23
2023-02-21T07:05:10.282Z,10.35
2023-02-21T07:07:38.379Z,10.27
2023-02-21T07:10:11.155Z,11.13
2023-02-21T07:12:38.197Z,11.23
2023-02-21T07:15:09.836Z,13.63
2023-02-21T07:17:36.782Z,11.98
2023-02-21T07:20:04.819Z,13.18
2023-02-21T07:22:34.286Z,13.25
2023-02-21T07:25:01.239Z,14.82
2023-02-21T07:27:28.268Z,13.60
2023-02-21T07:29:55.299Z,14.40
2023-02-21T07:34:51.592Z,14.93
2023-02-21T07:37:18.628Z,15.23
2023-02-21T07:39:45.759Z,14.57
2023-02-21T07:42:13.542Z,17.77
2023-02-21T07:44:48.070Z,17.20
2023-02-21T07:47:16.447Z,14.45
2023-02-21T07:49:43.646Z,17.52
2023-02-21T07:52:10.790Z,17.52
2023-02-21T07:54:39.777Z,13.52
2023-02-21T07:57:10.018Z,16.13
2023-02-21T07:59:37.333Z,17.35
2023-02-21T08:02:05.810Z,18.13
2023-02-21T08:04:33.002Z,18.75
2023-02-21T08:07:01.390Z,18.63
2023-02-21T08:09:29.706Z,18.75
2023-02-21T08:11:56.730Z,19.27
2023-02-21T08:14:23.778Z,20.50
2023-02-21T08:16:50.690Z,18.70
2023-02-21T08:19:17.659Z,20.88
2023-02-21T08:21:49.232Z,19.05
2023-02-21T08:24:18.037Z,18.98
2023-02-21T08:26:46.933Z,19.63
2023-02-21T08:29:14.697Z,19.05
2023-02-21T08:31:44.470Z,28.60
2023-02-21T08:34:12.493Z,23.75
2023-02-21T08:36:43.458Z,27.73
2023-02-21T08:39:15.177Z,21.27
2023-02-21T08:41:46.980Z,18.75
2023-02-21T08:44:17.355Z,20.60
2023-02-21T08:46:45.340Z,21.40
2023-02-21T08:49:12.306Z,19.42
2023-02-21T08:51:40.392Z,21.00
2023-02-21T08:54:09.343Z,20.02
2023-02-21T08:56:36.553Z,19.73
2023-02-21T08:59:05.406Z,19.95
2023-02-21T09:01:35.246Z,21.52
2023-02-21T09:04:05.125Z,17.75
2023-02-21T09:06:35.440Z,16.85
2023-02-21T09:09:02.488Z,15.85
2023-02-21T09:11:29.648Z,15.10
2023-02-21T09:13:56.557Z,15.70
2023-02-21T09:16:23.791Z,15.02
2023-02-21T09:19:00.882Z,15.57
2023-02-21T09:21:29.669Z,15.75
2023-02-21T09:23:59.229Z,16.58
2023-02-21T09:26:32.927Z,17.65
2023-02-21T09:28:59.909Z,16.48
2023-02-21T09:31:27.032Z,14.50
2023-02-21T09:33:54.055Z,14.35
2023-02-21T09:36:24.246Z,15.43
2023-02-21T09:38:53.981Z,15.55
2023-02-21T09:41:21.374Z,15.63
2023-02-21T09:43:53.106Z,14.43
2023-02-21T09:46:39.557Z,14.13
2023-02-21T09:49:24.158Z,15.38
2023-02-21T09:52:02.364Z,11.93
2023-02-21T09:54:37.301Z,13.90
2023-02-21T09:57:10.897Z,14.05
2023-02-21T09:59:37.880Z,15.50
2023-02-21T10:02:11.033Z,15.23
2023-02-21T10:04:56.652Z,16.13
2023-02-21T10:07:45.866Z,17.55
2023-02-21T10:10:26.992Z,17.58
2023-02-21T10:13:02.605Z,16.92
2023-02-21T10:15:55.968Z,17.75
2023-02-21T10:18:35.612Z,15.07
2023-02-21T10:21:11.649Z,15.40
2023-02-21T10:23:52.280Z,16.75
2023-02-21T10:26:29.728Z,18.00
2023-02-21T10:28:58.441Z,17.70
2023-02-21T10:31:41.208Z,18.48
2023-02-21T10:34:21.773Z,20.48
2023-02-21T10:36:50.265Z,20.50
2023-02-21T10:39:22.259Z,20.60
2023-02-21T10:41:51.012Z,21.38
2023-02-21T10:44:32.911Z,20.50
2023-02-21T10:47:14.298Z,20.45
2023-02-21T10:49:54.381Z,19.55
2023-02-21T10:52:25.977Z,21.00
2023-02-21T10:55:03.759Z,21.00
2023-02-21T10:57:34.308Z,18.95
2023-02-21T11:03:37.532Z,17.00
2023-02-21T11:06:06.919Z,17.55
2023-02-21T11:08:44.581Z,18.40
2023-02-21T11:11:11.884Z,19.38
2023-02-21T11:13:40.027Z,18.90
2023-02-21T11:16:27.237Z,19.05
2023-02-21T11:19:14.932Z,18.38
2023-02-21T11:21:55.017Z,17.75
2023-02-21T11:24:22.927Z,17.10
2023-02-21T11:26:56.783Z,17.58
2023-02-21T11:29:27.433Z,15.57
2023-02-21T11:31:56.699Z,15.20
2023-02-21T11:34:29.925Z,16.52
2023-02-21T11:37:05.146Z,16.13
2023-02-21T11:39:34.971Z,17.60
2023-02-21T11:42:08.090Z,17.38
2023-02-21T11:44:39.515Z,18.27
2023-02-21T11:47:26.313Z,17.77
2023-02-21T11:50:22.467Z,17.67
2023-02-21T11:52:55.496Z,17.05
2023-02-21T11:57:58.787Z,16.75
2023-02-21T12:00:29.009Z,16.30
2023-02-21T12:03:00.769Z,15.55
2023-02-21T12:06:05.044Z,16.20
2023-02-21T12:08:44.818Z,15.98
2023-02-21T12:11:37.042Z,15.50
2023-02-21T12:14:19.683Z,15.45
2023-02-21T12:17:17.608Z,18.40
2023-02-21T12:19:51.383Z,16.35
2023-02-21T12:22:47.373Z,17.52
2023-02-21T12:25:55.765Z,17.08
2023-02-21T12:28:52.532Z,16.73
2023-02-21T12:32:10.414Z,16.48
2023-02-21T12:35:11.576Z,16.55
2023-02-21T12:38:10.565Z,18.05
2023-02-21T12:41:05.561Z,17.23
2023-02-21T12:43:58.254Z,16.70
2023-02-21T12:46:34.887Z,17.40
2023-02-21T12:49:22.607Z,17.70
2023-02-21T12:52:16.380Z,15.45
2023-02-21T12:54:47.269Z,15.88
2023-02-21T12:57:46.911Z,13.85
2023-02-21T13:00:57.599Z,14.50
2023-02-21T13:04:02.470Z,12.90
2023-02-21T13:06:36.688Z,14.32
2023-02-21T13:09:23.094Z,14.27
2023-02-21T13:12:31.029Z,12.02
2023-02-21T13:15:04.497Z,14.07
2023-02-21T13:17:36.779Z,13.85
2023-02-21T13:20:09.589Z,15.98
2023-02-21T13:22:58.718Z,14.90
2023-02-21T13:25:48.980Z,14.13
2023-02-21T13:28:32.039Z,15.07
2023-02-21T13:31:02.714Z,15.23
2023-02-21T13:33:45.885Z,16.23
2023-02-21T13:36:25.529Z,14.82
2023-02-21T13:39:15.482Z,14.65
2023-02-21T13:41:51.291Z,15.27
2023-02-21T13:44:36.768Z,15.60
2023-02-21T13:47:14.281Z,14.20
2023-02-21T13:49:51.498Z,14.77
2023-02-21T13:52:26.897Z,14.48
2023-02-21T13:55:16.876Z,17.05
2023-02-21T13:57:49.356Z,13.65
2023-02-21T14:03:10.572Z,14.93
2023-02-21T14:06:02.110Z,16.33
2023-02-21T14:09:03.012Z,16.15
2023-02-21T14:11:39.603Z,17.15
2023-02-21T14:14:26.368Z,15.27
2023-02-21T14:17:02.299Z,17.25
2023-02-21T14:19:41.852Z,15.82
2023-02-21T14:22:17.463Z,16.63
2023-02-21T14:24:49.324Z,15.73
2023-02-21T14:27:19.638Z,12.60
2023-02-21T14:30:11.017Z,15.57
2023-02-21T14:32:44.580Z,16.20
2023-02-21T14:35:17.031Z,16.65
2023-02-21T14:37:53.486Z,16.35
2023-02-21T14:40:42.309Z,15.10
2023-02-21T14:43:38.001Z,13.52
2023-02-21T14:46:41.048Z,14.10
2023-02-21T14:49:48.655Z,15.25
2023-02-21T14:52:19.126Z,15.88
2023-02-21T14:55:35.246Z,15.00
2023-02-21T14:58:55.788Z,14.60
2023-02-21T15:01:41.483Z,15.90
2023-02-21T15:04:32.908Z,16.75
2023-02-21T15:07:19.733Z,15.85
2023-02-21T15:10:25.573Z,14.35
2023-02-21T15:13:05.882Z,13.75
2023-02-21T15:15:43.590Z,13.15
2023-02-21T15:18:35.357Z,13.30
2023-02-21T15:21:18.697Z,13.48
2023-02-21T15:24:03.185Z,13.98
2023-02-21T15:26:34.808Z,13.55
2023-02-21T15:29:09.748Z,11.93
2023-02-21T15:31:56.593Z,11.57
2023-02-21T15:34:28.923Z,11.38
2023-02-21T15:40:15.270Z,12.82
2023-02-21T15:42:45.377Z,11.75
2023-02-21T15:45:37.556Z,13.25
2023-02-21T15:48:06.947Z,11.87
2023-02-21T15:50:44.652Z,12.68
2023-02-21T15:53:23.160Z,12.32
2023-02-21T15:56:14.639Z,12.75
2023-02-21T15:59:10.140Z,12.85
2023-02-21T16:01:40.672Z,14.10
2023-02-21T16:04:24.478Z,14.27
2023-02-21T16:06:55.663Z,15.00
2023-02-21T16:09:32.252Z,15.35
2023-02-21T16:12:14.040Z,14.75
2023-02-21T16:14:46.938Z,15.25
2023-02-21T16:17:26.105Z,14.40
2023-02-21T16:19:59.854Z,16.88
2023-02-21T16:23:18.715Z,15.50
2023-02-21T16:26:00.522Z,16.23
2023-02-21T16:28:36.699Z,15.57
2023-02-21T16:31:07.440Z,16.40
2023-02-21T16:33:35.793Z,16.42
2023-02-21T16:36:10.776Z,16.42
2023-02-21T16:38:41.181Z,17.23
2023-02-21T16:41:16.107Z,16.75
2023-02-21T16:43:43.633Z,17.33
2023-02-21T16:46:10.971Z,17.60
2023-02-21T16:48:39.292Z,17.42
2023-02-21T16:57:55.362Z,16.92
2023-02-21T17:00:25.252Z,17.65
2023-02-21T17:02:54.117Z,17.42
2023-02-21T17:05:22.656Z,17.45
2023-02-21T17:07:50.789Z,17.33
2023-02-21T17:10:21.379Z,18.10
2023-02-21T17:12:51.281Z,18.55
2023-02-21T17:15:21.785Z,18.70
2023-02-21T17:17:53.545Z,18.33
2023-02-21T17:20:22.908Z,18.13
2023-02-21T17:22:53.127Z,18.23
2023-02-21T17:28:06.862Z,19.63
2023-02-21T17:30:37.883Z,19.00
2023-02-21T17:33:08.638Z,19.35
2023-02-21T17:35:38.715Z,20.05
2023-02-21T17:38:08.746Z,19.80
2023-02-21T17:40:44.769Z,19.02
2023-02-21T17:46:53.640Z,19.95
2023-02-21T17:49:28.502Z,21.85
2023-02-21T17:51:57.006Z,23.20
2023-02-21T17:54:31.576Z,22.40
2023-02-21T17:57:07.288Z,23.60
2023-02-21T17:59:37.758Z,22.27
2023-02-21T18:02:11.307Z,22.70
2023-02-21T18:04:42.103Z,25.60
2023-02-21T18:07:11.843Z,23.70
2023-02-21T18:09:42.135Z,22.02
2023-02-21T18:12:13.846Z,24.92
2023-02-21T18:14:44.509Z,22.63
2023-02-21T18:17:13.048Z,22.85
2023-02-21T18:19:43.960Z,22.35
2023-02-21T18:22:12.247Z,23.02
2023-02-21T18:24:41.015Z,29.13
2023-02-21T18:27:21.413Z,24.30
2023-02-21T18:29:54.777Z,23.50
2023-02-21T18:32:23.656Z,22.60
2023-02-21T18:34:52.028Z,23.40
2023-02-21T18:37:22.761Z,21.08
2023-02-21T18:39:55.914Z,22.90
2023-02-21T18:42:27.497Z,23.65
2023-02-21T18:44:58.110Z,24.50
2023-02-21T18:47:27.018Z,23.08
2023-02-21T18:49:56.558Z,34.22
2023-02-21T18:52:27.596Z,25.45
2023-02-21T18:55:04.301Z,26.08
2023-02-21T18:57:35.892Z,26.50
2023-02-21T19:00:09.541Z,26.25
2023-02-21T19:02:39.582Z,26.83
2023-02-21T19:05:10.141Z,26.30
2023-02-21T19:07:40.327Z,34.20
2023-02-21T19:10:31.575Z,37.60
2023-02-21T19:12:59.533Z,29.88
2023-02-21T19:15:27.045Z,30.25
2023-02-21T19:17:55.595Z,33.28
2023-02-21T19:20:22.618Z,36.78
2023-02-21T19:22:49.791Z,36.55
2023-02-21T19:25:19.281Z,37.03
2023-02-21T19:27:48.380Z,40.38
2023-02-21T19:30:21.275Z,40.63
2023-02-21T19:32:55.426Z,38.58
2023-02-21T19:35:24.720Z,39.47
2023-02-21T19:37:55.125Z,38.95
2023-02-21T19:40:24.802Z,40.33
2023-02-21T19:42:54.394Z,40.65
2023-02-21T19:45:24.411Z,42.45
2023-02-21T19:47:56.520Z,42.15
2023-02-21T19:50:23.820Z,41.30
2023-02-21T19:52:58.374Z,41.25
2023-02-21T19:55:54.534Z,42.72
2023-02-21T19:58:22.957Z,40.22
2023-02-21T20:00:50.829Z,40.30
2023-02-21T20:03:18.183Z,40.88
2023-02-21T20:05:45.662Z,44.78
2023-02-21T20:08:12.892Z,40.53
2023-02-21T20:10:43.761Z,41.60
2023-02-21T20:13:17.157Z,40.78
2023-02-21T20:15:46.555Z,39.60
2023-02-21T20:18:17.936Z,39.05
2023-02-21T20:20:47.935Z,37.78
2023-02-21T20:23:18.057Z,38.28
2023-02-21T20:25:46.980Z,39.13
2023-02-21T20:28:18.944Z,40.65
2023-02-21T20:30:50.095Z,39.13
2023-02-21T20:33:20.680Z,37.35
2023-02-21T20:35:49.038Z,36.28
2023-02-21T20:38:16.913Z,36.88
2023-02-21T20:40:50.204Z,34.40
2023-02-21T20:43:24.385Z,35.92
2023-02-21T20:45:55.364Z,35.10
2023-02-21T20:48:26.429Z,35.20
2023-02-21T20:50:54.163Z,33.23
2023-02-21T20:53:22.674Z,33.80
2023-02-21T20:55:55.275Z,35.15
2023-02-21T21:00:56.279Z,34.65
2023-02-21T21:03:26.180Z,32.75
2023-02-21T21:05:55.578Z,34.80
2023-02-21T21:11:06.775Z,33.20
2023-02-21T21:13:39.903Z,35.80
2023-02-21T21:16:14.984Z,32.60
2023-02-21T21:18:45.114Z,34.38
2023-02-21T21:21:16.790Z,33.58
2023-02-21T21:23:50.534Z,34.00
2023-02-21T21:26:22.155Z,33.35
2023-02-21T21:28:56.697Z,33.42
2023-02-21T21:31:27.047Z,32.63
2023-02-21T21:33:56.549Z,31.38
2023-02-21T21:36:28.291Z,33.75
2023-02-21T21:38:57.197Z,33.85
2023-02-21T21:41:33.484Z,31.58
2023-02-21T21:44:00.785Z,32.83
2023-02-21T21:46:29.033Z,33.78
2023-02-21T21:48:57.655Z,32.85
2023-02-21T21:51:28.788Z,33.28
2023-02-21T21:53:57.672Z,33.15
2023-02-21T21:56:42.720Z,32.92
2023-02-21T21:59:41.919Z,33.80
2023-02-21T22:02:14.908Z,32.25
2023-02-21T22:05:30.791Z,33.10
2023-02-21T22:08:15.102Z,32.55
2023-02-21T22:10:51.045Z,32.53
2023-02-21T22:13:29.280Z,33.53
2023-02-21T22:15:57.704Z,34.13
2023-02-21T22:18:28.327Z,34.20
2023-02-21T22:20:55.785Z,32.67
2023-02-21T22:23:27.252Z,34.70
2023-02-21T22:26:01.030Z,34.65
2023-02-21T22:28:43.819Z,35.25
2023-02-21T22:31:23.413Z,33.72
2023-02-21T22:33:59.717Z,33.00
2023-02-21T22:36:31.219Z,35.20
2023-02-21T22:38:58.670Z,40.15
2023-02-21T22:41:33.145Z,35.53
2023-02-21T22:44:04.810Z,36.63
2023-02-21T22:46:58.737Z,34.90
2023-02-21T22:49:28.641Z,32.95
2023-02-21T22:51:57.776Z,32.53
2023-02-21T22:54:27.400Z,34.00
2023-02-21T22:57:01.176Z,32.80
2023-02-21T22:59:28.368Z,33.65
2023-02-21T23:01:59.276Z,31.17
2023-02-21T23:04:26.831Z,31.67
2023-02-21T23:07:01.196Z,31.02
2023-02-21T23:09:31.100Z,30.65
2023-02-21T23:12:02.422Z,30.77
2023-02-21T23:14:31.849Z,31.35
2023-02-21T23:17:00.741Z,30.95
2023-02-21T23:19:36.819Z,31.15
2023-02-21T23:22:05.826Z,30.85
2023-02-21T23:24:34.101Z,31.38
2023-02-21T23:27:05.236Z,31.60
2023-02-21T23:29:35.806Z,30.38
2023-02-21T23:32:10.292Z,30.52
2023-02-21T23:34:41.008Z,31.27
2023-02-21T23:37:13.307Z,29.80
2023-02-21T23:39:46.746Z,29.90
2023-02-21T23:42:17.945Z,31.92
2023-02-21T23:44:45.700Z,31.20
2023-02-21T23:47:17.362Z,30.38
2023-02-21T23:49:44.494Z,29.50
2023-02-21T23:52:11.534Z,30.58
2023-02-21T23:54:41.104Z,31.13
2023-02-21T23:57:08.156Z,28.67
2023-02-21T23:59:37.821Z,29.08
